createdAt,value
2023-06-07T00:00:06.777Z,96337.00
2023-06-07T00:02:43.632Z,96328.25
2023-06-07T00:05:14.090Z,96328.53
2023-06-07T00:07:43.154Z,96326.06
2023-06-07T00:10:12.041Z,96317.81
2023-06-07T00:12:40.637Z,96313.88
2023-06-07T00:15:11.321Z,96317.31
2023-06-07T00:17:42.290Z,96319.94
2023-06-07T00:20:13.850Z,96318.66
2023-06-07T00:22:42.963Z,96314.78
2023-06-07T00:25:12.311Z,96313.38
2023-06-07T00:27:40.847Z,96310.00
2023-06-07T00:30:12.015Z,96308.41
2023-06-07T00:32:40.662Z,96306.97
2023-06-07T00:35:10.780Z,96309.03
2023-06-07T00:37:39.340Z,96314.88
2023-06-07T00:40:09.103Z,96312.13
2023-06-07T00:42:37.782Z,96318.28
2023-06-07T00:45:07.215Z,96310.47
2023-06-07T00:47:39.394Z,96296.50
2023-06-07T00:50:09.127Z,96307.91
2023-06-07T00:52:47.265Z,96302.78
2023-06-07T00:55:15.834Z,96309.56
2023-06-07T00:57:54.897Z,96303.59
2023-06-07T01:00:23.654Z,96301.13
2023-06-07T01:02:56.742Z,96308.16
2023-06-07T01:05:25.394Z,96304.34
2023-06-07T01:07:56.076Z,96298.38
2023-06-07T01:10:24.746Z,96301.84
2023-06-07T01:12:56.062Z,96291.56
2023-06-07T01:15:25.529Z,96299.44
2023-06-07T01:17:55.819Z,96302.06
2023-06-07T01:20:26.880Z,96302.66
2023-06-07T01:22:58.081Z,96293.78
2023-06-07T01:25:28.230Z,96290.09
2023-06-07T01:27:58.143Z,96296.31
2023-06-07T01:30:32.528Z,96294.84
2023-06-07T01:33:05.188Z,96289.34
2023-06-07T01:35:35.735Z,96292.81
2023-06-07T01:38:04.406Z,96289.28
2023-06-07T01:40:35.331Z,96288.09
2023-06-07T01:43:05.953Z,96289.34
2023-06-07T01:45:35.368Z,96294.50
2023-06-07T01:48:07.395Z,96294.75
2023-06-07T01:50:35.928Z,96293.72
2023-06-07T01:53:04.387Z,96284.50
2023-06-07T01:55:34.793Z,96284.91
2023-06-07T01:58:11.305Z,96284.50
2023-06-07T02:00:48.268Z,96276.72
2023-06-07T02:03:21.978Z,96289.28
2023-06-07T02:05:52.632Z,96286.44
2023-06-07T02:08:30.068Z,96283.72
2023-06-07T02:11:00.817Z,96284.38
2023-06-07T02:13:32.059Z,96284.19
2023-06-07T02:16:01.894Z,96285.84
2023-06-07T02:18:32.114Z,96291.59
2023-06-07T02:21:00.604Z,96293.44
2023-06-07T02:23:29.042Z,96295.91
2023-06-07T02:25:57.492Z,96299.81
2023-06-07T02:28:27.538Z,96297.13
2023-06-07T02:30:56.738Z,96299.81
2023-06-07T02:33:26.309Z,96295.94
2023-06-07T02:35:54.894Z,96304.34
2023-06-07T02:38:24.694Z,96299.41
2023-06-07T02:40:55.261Z,96301.25
2023-06-07T02:43:23.605Z,96300.44
2023-06-07T02:45:53.420Z,96298.38
2023-06-07T02:48:21.895Z,96300.22
2023-06-07T02:50:50.502Z,96297.97
2023-06-07T02:53:18.947Z,96301.88
2023-06-07T02:55:47.330Z,96307.22
2023-06-07T02:58:16.708Z,96304.31
2023-06-07T03:00:47.850Z,96310.28
2023-06-07T03:03:18.261Z,96305.56
2023-06-07T03:05:49.273Z,96311.09
2023-06-07T03:08:18.014Z,96314.41
2023-06-07T03:10:46.622Z,96315.63
2023-06-07T03:13:15.076Z,96321.59
2023-06-07T03:15:43.675Z,96311.31
2023-06-07T03:18:16.641Z,96313.34
2023-06-07T03:20:46.503Z,96314.38
2023-06-07T03:23:14.940Z,96316.44
2023-06-07T03:25:43.346Z,96314.59
2023-06-07T03:28:12.161Z,96317.47
2023-06-07T03:30:41.437Z,96322.41
2023-06-07T03:33:09.827Z,96320.31
2023-06-07T03:35:38.199Z,96321.75
2023-06-07T03:38:08.026Z,96317.47
2023-06-07T03:40:36.520Z,96330.59
2023-06-07T03:43:04.925Z,96329.97
2023-06-07T03:45:33.316Z,96327.72
2023-06-07T03:48:01.831Z,96333.06
2023-06-07T03:50:30.264Z,96319.34
2023-06-07T03:52:58.957Z,96330.44
2023-06-07T03:55:30.708Z,96329.78
2023-06-07T03:57:59.799Z,96334.09
2023-06-07T04:00:29.059Z,96335.13
2023-06-07T04:02:57.767Z,96338.41
2023-06-07T04:05:27.327Z,96341.31
2023-06-07T04:08:00.681Z,96338.22
2023-06-07T04:10:30.616Z,96339.88
2023-06-07T04:12:59.049Z,96348.88
2023-06-07T04:15:27.512Z,96347.47
2023-06-07T04:17:55.915Z,96350.31
2023-06-07T04:20:24.363Z,96346.84
2023-06-07T04:22:53.260Z,96342.72
2023-06-07T04:25:24.047Z,96342.94
2023-06-07T04:28:00.614Z,96338.84
2023-06-07T04:30:35.683Z,96338.63
2023-06-07T04:33:05.652Z,96336.59
2023-06-07T04:35:34.820Z,96351.38
2023-06-07T04:38:03.967Z,96344.19
2023-06-07T04:40:32.478Z,96348.50
2023-06-07T04:43:06.136Z,96340.28
2023-06-07T04:45:34.870Z,96342.97
2023-06-07T04:48:03.373Z,96348.28
2023-06-07T04:50:31.910Z,96342.13
2023-06-07T04:53:03.946Z,96343.34
2023-06-07T04:55:35.306Z,96346.63
2023-06-07T04:58:13.077Z,96344.78
2023-06-07T05:00:41.680Z,96344.78
2023-06-07T05:03:10.362Z,96342.75
2023-06-07T05:05:39.234Z,96349.09
2023-06-07T05:08:07.734Z,96350.75
2023-06-07T05:10:37.876Z,96351.16
2023-06-07T05:13:06.275Z,96352.56
2023-06-07T05:15:36.149Z,96350.13
2023-06-07T05:18:04.635Z,96351.16
2023-06-07T05:20:34.428Z,96353.00
2023-06-07T05:23:03.691Z,96355.69
2023-06-07T05:25:32.358Z,96359.41
2023-06-07T05:28:12.379Z,96356.72
2023-06-07T05:30:43.540Z,96358.16
2023-06-07T05:33:12.061Z,96360.19
2023-06-07T05:35:40.652Z,96353.63
2023-06-07T05:38:09.640Z,96354.41
2023-06-07T05:40:38.310Z,96354.81
2023-06-07T05:43:07.378Z,96358.47
2023-06-07T05:45:36.282Z,96349.84
2023-06-07T05:48:07.154Z,96353.94
2023-06-07T05:50:35.676Z,96352.88
2023-06-07T05:53:04.161Z,96351.41
2023-06-07T05:55:32.597Z,96352.63
2023-06-07T05:58:01.675Z,96352.63
2023-06-07T06:00:30.314Z,96351.56
2023-06-07T06:03:02.068Z,96356.66
2023-06-07T06:05:32.175Z,96352.09
2023-06-07T06:08:00.653Z,96364.63
2023-06-07T06:10:29.672Z,96365.66
2023-06-07T06:12:58.909Z,96362.53
2023-06-07T06:15:27.390Z,96365.19
2023-06-07T06:17:56.209Z,96354.63
2023-06-07T06:20:24.833Z,96362.47
2023-06-07T06:22:57.420Z,96353.81
2023-06-07T06:25:26.977Z,96351.88
2023-06-07T06:27:55.470Z,96361.97
2023-06-07T06:30:24.760Z,96359.00
2023-06-07T06:33:01.209Z,96356.28
2023-06-07T06:35:29.734Z,96355.44
2023-06-07T06:37:59.573Z,96349.63
2023-06-07T06:40:28.083Z,96361.53
2023-06-07T06:42:56.721Z,96360.06
2023-06-07T06:45:25.125Z,96357.97
2023-06-07T06:47:53.664Z,96362.09
2023-06-07T06:50:32.744Z,96364.31
2023-06-07T06:53:04.062Z,96356.06
2023-06-07T06:55:33.046Z,96360.53
2023-06-07T06:58:04.392Z,96363.41
2023-06-07T07:00:37.013Z,96361.53
2023-06-07T07:03:05.613Z,96362.50
2023-06-07T07:05:34.057Z,96365.31
2023-06-07T07:08:04.895Z,96364.44
2023-06-07T07:10:33.323Z,96365.19
2023-06-07T07:13:01.852Z,96364.91
2023-06-07T07:15:30.482Z,96365.06
2023-06-07T07:17:59.163Z,96368.50
2023-06-07T07:20:28.207Z,96371.69
2023-06-07T07:22:57.049Z,96365.00
2023-06-07T07:25:26.768Z,96363.88
2023-06-07T07:27:55.210Z,96368.34
2023-06-07T07:30:23.778Z,96361.47
2023-06-07T07:32:52.560Z,96358.13
2023-06-07T07:35:23.483Z,96357.25
2023-06-07T07:37:54.836Z,96358.44
2023-06-07T07:40:23.427Z,96364.75
2023-06-07T07:42:53.270Z,96355.69
2023-06-07T07:45:21.639Z,96352.81
2023-06-07T07:47:50.066Z,96350.28
2023-06-07T07:50:18.604Z,96346.31
2023-06-07T07:52:57.915Z,96348.53
2023-06-07T07:55:27.003Z,96351.13
2023-06-07T07:57:56.758Z,96345.44
2023-06-07T08:00:25.556Z,96342.06
2023-06-07T08:02:54.075Z,96340.97
2023-06-07T08:05:22.588Z,96344.16
2023-06-07T08:07:51.090Z,96338.03
2023-06-07T08:10:19.674Z,96332.06
2023-06-07T08:12:48.268Z,96337.69
2023-06-07T08:15:18.497Z,96328.34
2023-06-07T08:17:47.897Z,96336.84
2023-06-07T08:20:20.656Z,96338.25
2023-06-07T08:22:51.580Z,96336.59
2023-06-07T08:25:20.201Z,96335.19
2023-06-07T08:27:58.686Z,96335.41
2023-06-07T08:30:28.487Z,96334.44
2023-06-07T08:32:56.944Z,96336.22
2023-06-07T08:35:25.440Z,96334.81
2023-06-07T08:37:53.927Z,96328.63
2023-06-07T08:40:24.144Z,96336.78
2023-06-07T08:42:52.687Z,96336.53
2023-06-07T08:45:21.452Z,96326.28
2023-06-07T08:47:52.643Z,96330.34
2023-06-07T08:50:23.750Z,96336.06
2023-06-07T08:52:55.587Z,96330.41
2023-06-07T08:55:25.289Z,96336.59
2023-06-07T08:57:55.312Z,96328.69
2023-06-07T09:00:34.100Z,96330.84
2023-06-07T09:03:04.112Z,96323.25
2023-06-07T09:05:32.552Z,96333.63
2023-06-07T09:08:02.209Z,96335.28
2023-06-07T09:10:30.698Z,96326.69
2023-06-07T09:12:59.141Z,96330.28
2023-06-07T09:15:30.764Z,96332.66
2023-06-07T09:18:03.482Z,96328.03
2023-06-07T09:20:34.462Z,96335.50
2023-06-07T09:23:04.228Z,96328.88
2023-06-07T09:25:34.206Z,96327.53
2023-06-07T09:28:04.724Z,96327.25
2023-06-07T09:30:33.168Z,96328.69
2023-06-07T09:33:08.213Z,96320.66
2023-06-07T09:35:38.303Z,96323.34
2023-06-07T09:38:10.295Z,96321.47
2023-06-07T09:40:52.266Z,96318.19
2023-06-07T09:43:20.806Z,96316.94
2023-06-07T09:45:55.398Z,96324.44
2023-06-07T09:48:24.392Z,96320.22
2023-06-07T09:51:00.747Z,96312.72
2023-06-07T09:53:29.463Z,96308.72
2023-06-07T09:55:57.847Z,96316.38
2023-06-07T09:58:26.283Z,96313.44
2023-06-07T10:00:57.257Z,96311.78
2023-06-07T10:03:28.427Z,96304.34
2023-06-07T10:05:57.077Z,96308.78
2023-06-07T10:08:27.052Z,96301.84
2023-06-07T10:10:57.190Z,96303.06
2023-06-07T10:13:26.410Z,96300.66
2023-06-07T10:15:58.085Z,96302.03
2023-06-07T10:18:27.793Z,96297.22
2023-06-07T10:20:59.793Z,96295.13
2023-06-07T10:23:36.885Z,96297.84
2023-06-07T10:26:09.395Z,96298.94
2023-06-07T10:28:43.002Z,96297.72
2023-06-07T10:31:14.897Z,96294.31
2023-06-07T10:33:43.902Z,96303.09
2023-06-07T10:36:13.321Z,96295.56
2023-06-07T10:38:43.890Z,96300.50
2023-06-07T10:41:15.001Z,96294.03
2023-06-07T10:43:47.883Z,96294.59
2023-06-07T10:46:21.651Z,96286.56
2023-06-07T10:48:50.334Z,96291.19
2023-06-07T10:51:21.069Z,96292.03
2023-06-07T10:53:52.313Z,96285.31
2023-06-07T10:56:39.464Z,96281.53
2023-06-07T10:59:22.557Z,96282.38
2023-06-07T11:01:53.492Z,96278.84
2023-06-07T11:04:56.984Z,96281.28
2023-06-07T11:07:28.860Z,96284.03
2023-06-07T11:10:35.518Z,96276.50
2023-06-07T11:13:04.825Z,96285.47
2023-06-07T11:15:40.108Z,96280.06
2023-06-07T11:18:14.928Z,96283.31
2023-06-07T11:20:53.913Z,96276.25
2023-06-07T11:23:29.907Z,96273.78
2023-06-07T11:26:08.410Z,96265.38
2023-06-07T11:28:39.753Z,96265.88
2023-06-07T11:31:12.058Z,96262.38
2023-06-07T11:33:42.563Z,96251.28
2023-06-07T11:36:12.601Z,96254.56
2023-06-07T11:38:43.810Z,96255.09
2023-06-07T11:41:13.835Z,96259.44
2023-06-07T11:43:42.489Z,96257.81
2023-06-07T11:46:15.790Z,96253.19
2023-06-07T11:48:44.404Z,96243.41
2023-06-07T11:51:14.935Z,96253.41
2023-06-07T11:53:43.331Z,96244.44
2023-06-07T11:56:13.358Z,96239.50
2023-06-07T11:58:43.051Z,96235.13
2023-06-07T12:01:11.568Z,96239.38
2023-06-07T12:03:44.989Z,96233.09
2023-06-07T12:06:27.163Z,96228.44
2023-06-07T12:08:55.713Z,96227.34
2023-06-07T12:11:25.780Z,96226.75
2023-06-07T12:13:55.762Z,96216.88
2023-06-07T12:16:24.339Z,96221.13
2023-06-07T12:18:53.260Z,96208.28
2023-06-07T12:21:25.605Z,96196.78
2023-06-07T12:23:54.767Z,96204.09
2023-06-07T12:26:28.969Z,96197.28
2023-06-07T12:29:03.603Z,96195.13
2023-06-07T12:31:32.277Z,96202.94
2023-06-07T12:34:06.822Z,96201.75
2023-06-07T12:36:36.292Z,96191.91
2023-06-07T12:39:05.871Z,96188.31
2023-06-07T12:41:35.958Z,96185.25
2023-06-07T12:44:06.492Z,96180.81
2023-06-07T12:46:35.336Z,96188.66
2023-06-07T12:49:04.667Z,96186.09
2023-06-07T12:51:34.396Z,96178.81
2023-06-07T12:54:03.441Z,96179.22
2023-06-07T12:56:31.976Z,96171.13
2023-06-07T12:59:04.040Z,96181.25
2023-06-07T13:01:33.115Z,96171.88
2023-06-07T13:04:02.265Z,96171.81
2023-06-07T13:06:30.873Z,96171.53
2023-06-07T13:09:01.545Z,96154.06
2023-06-07T13:11:30.066Z,96155.16
2023-06-07T13:13:58.457Z,96152.00
2023-06-07T13:16:28.545Z,96146.06
2023-06-07T13:18:57.117Z,96149.19
2023-06-07T13:21:25.646Z,96147.81
2023-06-07T13:23:54.178Z,96145.97
2023-06-07T13:26:23.957Z,96138.09
2023-06-07T13:28:52.604Z,96136.56
2023-06-07T13:31:21.105Z,96134.03
2023-06-07T13:33:50.892Z,96132.19
2023-06-07T13:36:19.682Z,96134.75
2023-06-07T13:38:49.898Z,96137.88
2023-06-07T13:41:18.384Z,96139.66
2023-06-07T13:44:03.452Z,96129.84
2023-06-07T13:46:36.668Z,96136.72
2023-06-07T13:49:06.994Z,96128.94
2023-06-07T13:51:35.841Z,96127.25
2023-06-07T13:54:04.265Z,96129.66
2023-06-07T13:56:32.693Z,96123.56
2023-06-07T13:59:01.299Z,96118.41
2023-06-07T14:01:31.038Z,96113.75
2023-06-07T14:04:00.020Z,96117.84
2023-06-07T14:06:30.158Z,96107.72
2023-06-07T14:08:58.736Z,96115.00
2023-06-07T14:11:27.361Z,96119.56
2023-06-07T14:13:55.854Z,96116.44
2023-06-07T14:16:27.144Z,96119.91
2023-06-07T14:18:56.818Z,96116.06
2023-06-07T14:21:25.638Z,96105.97
2023-06-07T14:23:55.449Z,96100.06
2023-06-07T14:26:24.078Z,96110.59
2023-06-07T14:28:52.589Z,96107.41
2023-06-07T14:31:22.956Z,96101.31
2023-06-07T14:33:53.186Z,96106.56
2023-06-07T14:36:27.965Z,96104.25
2023-06-07T14:38:57.758Z,96112.03
2023-06-07T14:41:26.194Z,96106.78
2023-06-07T14:43:55.996Z,96105.97
2023-06-07T14:46:24.527Z,96109.63
2023-06-07T14:48:53.016Z,96109.41
2023-06-07T14:51:24.436Z,96104.47
2023-06-07T14:53:52.976Z,96108.50
2023-06-07T14:56:23.104Z,96099.75
2023-06-07T14:58:51.624Z,96100.03
2023-06-07T15:01:21.049Z,96092.41
2023-06-07T15:03:49.587Z,96086.75
2023-06-07T15:06:18.080Z,96095.84
2023-06-07T15:08:47.508Z,96095.84
2023-06-07T15:11:16.963Z,96098.00
2023-06-07T15:13:46.741Z,96084.34
2023-06-07T15:16:15.219Z,96092.13
2023-06-07T15:18:43.949Z,96097.28
2023-06-07T15:21:13.047Z,96092.53
2023-06-07T15:23:41.478Z,96096.88
2023-06-07T15:26:10.492Z,96089.19
2023-06-07T15:28:48.189Z,96083.91
2023-06-07T15:31:16.628Z,96088.50
2023-06-07T15:33:45.035Z,96089.59
2023-06-07T15:36:13.430Z,96089.59
2023-06-07T15:38:41.948Z,96084.44
2023-06-07T15:41:10.451Z,96084.44
2023-06-07T15:43:38.943Z,96080.38
2023-06-07T15:46:08.690Z,96081.91
2023-06-07T15:48:37.213Z,96083.84
2023-06-07T15:51:06.263Z,96086.84
2023-06-07T15:53:34.652Z,96082.31
2023-06-07T15:56:03.012Z,96083.41
2023-06-07T15:58:31.517Z,96079.38
2023-06-07T16:00:59.902Z,96088.06
2023-06-07T16:03:42.215Z,96078.47
2023-06-07T16:06:18.104Z,96078.16
2023-06-07T16:08:46.744Z,96080.47
2023-06-07T16:11:15.103Z,96081.63
2023-06-07T16:13:43.539Z,96071.19
2023-06-07T16:16:12.161Z,96074.94
2023-06-07T16:18:41.976Z,96066.94
2023-06-07T16:21:10.418Z,96069.47
2023-06-07T16:23:38.908Z,96067.03
2023-06-07T16:26:07.423Z,96066.03
2023-06-07T16:28:35.810Z,96062.59
2023-06-07T16:31:04.285Z,96066.25
2023-06-07T16:33:32.932Z,96069.56
2023-06-07T16:36:04.574Z,96067.13
2023-06-07T16:38:35.082Z,96066.13
2023-06-07T16:41:03.562Z,96064.03
2023-06-07T16:43:31.938Z,96064.28
2023-06-07T16:46:00.453Z,96065.63
2023-06-07T16:48:28.941Z,96056.63
2023-06-07T16:50:57.354Z,96061.47
2023-06-07T16:53:27.115Z,96049.75
2023-06-07T16:55:55.689Z,96055.00
2023-06-07T16:58:24.378Z,96056.38
2023-06-07T17:00:52.793Z,96049.53
2023-06-07T17:03:21.405Z,96056.97
2023-06-07T17:05:49.933Z,96052.75
2023-06-07T17:08:18.320Z,96054.47
2023-06-07T17:10:49.275Z,96055.06
2023-06-07T17:13:18.246Z,96053.75
2023-06-07T17:15:46.980Z,96052.34
2023-06-07T17:18:15.705Z,96052.75
2023-06-07T17:20:45.522Z,96060.16
2023-06-07T17:23:16.794Z,96057.44
2023-06-07T17:25:45.248Z,96063.22
2023-06-07T17:28:15.024Z,96054.16
2023-06-07T17:30:43.453Z,96048.91
2023-06-07T17:33:11.920Z,96052.84
2023-06-07T17:35:40.896Z,96057.69
2023-06-07T17:38:09.400Z,96058.16
2023-06-07T17:40:37.795Z,96066.59
2023-06-07T17:43:06.867Z,96066.00
2023-06-07T17:45:36.671Z,96063.50
2023-06-07T17:48:05.286Z,96067.09
2023-06-07T17:53:13.317Z,96056.34
2023-06-07T17:55:42.312Z,96064.88
2023-06-07T17:58:10.697Z,96067.88
2023-06-07T18:00:40.557Z,96059.16
2023-06-07T18:03:09.751Z,96056.94
2023-06-07T18:05:38.298Z,96059.88
2023-06-07T18:08:07.622Z,96061.69
2023-06-07T18:10:36.065Z,96062.94
2023-06-07T18:13:05.118Z,96072.81
2023-06-07T18:15:35.644Z,96075.94
2023-06-07T18:18:05.808Z,96075.19
2023-06-07T18:20:34.268Z,96075.81
2023-06-07T18:23:04.809Z,96067.69
2023-06-07T18:25:33.341Z,96067.72
2023-06-07T18:28:01.756Z,96065.59
2023-06-07T18:30:30.380Z,96070.56
2023-06-07T18:32:58.783Z,96069.75
2023-06-07T18:35:28.600Z,96073.59
2023-06-07T18:37:57.021Z,96078.78
2023-06-07T18:40:25.514Z,96073.94
2023-06-07T18:42:53.918Z,96079.41
2023-06-07T18:45:22.457Z,96079.47
2023-06-07T18:47:51.022Z,96080.59
2023-06-07T18:50:22.175Z,96083.31
2023-06-07T18:52:53.744Z,96077.34
2023-06-07T18:55:23.565Z,96079.81
2023-06-07T18:57:52.002Z,96084.22
2023-06-07T19:00:21.178Z,96080.19
2023-06-07T19:02:49.742Z,96072.88
2023-06-07T19:05:18.438Z,96088.63
2023-06-07T19:07:49.230Z,96078.63
2023-06-07T19:10:19.096Z,96086.22
2023-06-07T19:12:47.553Z,96086.47
2023-06-07T19:15:16.501Z,96080.75
2023-06-07T19:17:45.071Z,96088.63
2023-06-07T19:20:14.599Z,96084.81
2023-06-07T19:22:43.019Z,96092.44
2023-06-07T19:25:11.478Z,96095.16
2023-06-07T19:27:43.901Z,96089.97
2023-06-07T19:30:20.696Z,96098.13
2023-06-07T19:32:49.266Z,96098.09
2023-06-07T19:35:18.077Z,96098.09
2023-06-07T19:37:46.610Z,96108.88
2023-06-07T19:40:18.352Z,96106.38
2023-06-07T19:42:52.205Z,96108.78
2023-06-07T19:45:20.897Z,96115.53
2023-06-07T19:47:49.370Z,96117.41
2023-06-07T19:50:17.829Z,96111.97
2023-06-07T19:52:46.588Z,96118.41
2023-06-07T19:55:15.246Z,96122.72
2023-06-07T19:57:43.743Z,96118.84
2023-06-07T20:00:14.588Z,96118.72
2023-06-07T20:02:53.015Z,96114.22
2023-06-07T20:05:21.902Z,96119.97
2023-06-07T20:07:51.365Z,96126.34
2023-06-07T20:10:19.876Z,96122.84
2023-06-07T20:12:48.315Z,96127.09
2023-06-07T20:15:18.471Z,96127.41
2023-06-07T20:17:48.092Z,96130.56
2023-06-07T20:20:16.663Z,96125.97
2023-06-07T20:22:45.121Z,96131.91
2023-06-07T20:25:16.276Z,96126.94
2023-06-07T20:27:44.774Z,96126.78
2023-06-07T20:30:14.451Z,96122.34
2023-06-07T20:32:44.253Z,96124.81
2023-06-07T20:35:13.948Z,96128.88
2023-06-07T20:37:42.366Z,96128.78
2023-06-07T20:40:11.468Z,96135.19
2023-06-07T20:42:40.406Z,96130.84
2023-06-07T20:45:10.273Z,96126.34
2023-06-07T20:47:38.904Z,96127.91
2023-06-07T20:50:11.841Z,96125.75
2023-06-07T20:52:40.363Z,96125.28
2023-06-07T20:55:09.519Z,96114.50
2023-06-07T20:57:38.021Z,96127.59
2023-06-07T21:00:07.937Z,96122.38
2023-06-07T21:02:36.786Z,96123.69
2023-06-07T21:05:05.875Z,96126.00
2023-06-07T21:07:35.810Z,96121.50
2023-06-07T21:10:06.114Z,96121.41
2023-06-07T21:12:34.707Z,96125.34
2023-06-07T21:15:05.651Z,96124.41
2023-06-07T21:17:34.621Z,96128.66
2023-06-07T21:20:04.262Z,96128.31
2023-06-07T21:22:32.916Z,96132.81
2023-06-07T21:25:02.960Z,96129.03
2023-06-07T21:27:31.405Z,96130.25
2023-06-07T21:30:09.860Z,96124.72
2023-06-07T21:32:38.456Z,96139.25
2023-06-07T21:35:07.896Z,96137.63
2023-06-07T21:37:36.375Z,96131.66
2023-06-07T21:40:08.033Z,96135.59
2023-06-07T21:42:37.010Z,96128.16
2023-06-07T21:45:05.990Z,96125.88
2023-06-07T21:47:34.422Z,96128.63
2023-06-07T21:50:02.983Z,96124.50
2023-06-07T21:52:31.743Z,96127.25
2023-06-07T21:55:00.434Z,96127.56
2023-06-07T21:57:30.710Z,96123.53
2023-06-07T21:59:59.363Z,96128.94
2023-06-07T22:02:27.969Z,96134.44
2023-06-07T22:04:59.101Z,96135.56
2023-06-07T22:07:29.509Z,96132.41
2023-06-07T22:10:00.316Z,96129.84
2023-06-07T22:12:32.092Z,96124.13
2023-06-07T22:15:01.865Z,96140.03
2023-06-07T22:17:31.013Z,96138.94
2023-06-07T22:20:06.593Z,96143.81
2023-06-07T22:22:35.995Z,96145.00
2023-06-07T22:25:05.183Z,96139.84
2023-06-07T22:27:35.060Z,96138.34
2023-06-07T22:30:03.787Z,96138.28
2023-06-07T22:32:33.795Z,96135.69
2023-06-07T22:35:05.904Z,96132.66
2023-06-07T22:37:34.680Z,96136.84
2023-06-07T22:40:05.766Z,96139.22
2023-06-07T22:42:36.386Z,96137.47
2023-06-07T22:45:05.319Z,96143.34
2023-06-07T22:47:34.105Z,96138.06
2023-06-07T22:50:03.640Z,96141.69
2023-06-07T22:52:34.248Z,96141.22
2023-06-07T22:55:03.171Z,96132.31
2023-06-07T22:57:32.815Z,96131.28
2023-06-07T23:00:03.074Z,96131.63
2023-06-07T23:02:32.226Z,96136.53
2023-06-07T23:05:00.703Z,96132.22
2023-06-07T23:07:31.028Z,96128.94
2023-06-07T23:09:59.492Z,96128.69
2023-06-07T23:12:29.772Z,96126.00
2023-06-07T23:14:58.490Z,96124.53
2023-06-07T23:17:28.570Z,96124.28
2023-06-07T23:19:57.176Z,96132.47
2023-06-07T23:22:27.636Z,96130.59
2023-06-07T23:24:56.024Z,96130.38
2023-06-07T23:27:24.388Z,96130.03
2023-06-07T23:29:53.645Z,96129.22
2023-06-07T23:32:22.076Z,96128.50
2023-06-07T23:34:51.830Z,96109.47
2023-06-07T23:37:20.494Z,96120.81
2023-06-07T23:39:48.937Z,96122.50
2023-06-07T23:42:17.374Z,96118.88
2023-06-07T23:44:46.014Z,96117.44
2023-06-07T23:47:14.481Z,96116.50
2023-06-07T23:49:42.848Z,96106.91
2023-06-07T23:52:12.847Z,96121.84
2023-06-07T23:54:41.248Z,96118.34
2023-06-07T23:57:09.880Z,96123.38
2023-06-07T23:59:38.399Z,96119.28
